Johannesburg, MI

8:58 AM EDT on June 02, 2015 (GMT -0400)
Lake Louise | | Change Station
CLOSE
Current Station
Personal Weather Station
Location: Johannesburg, MI
Elevation: 1358 ft
Nearby Weather Stations

Elev 1358 ft 44.98 °N, 84.49 °W | Updated 10 minutes ago

Clear
Clear
53.1 °F
Feels Like 53.1 °F
N
0.0
Wind Variable Wind from SW

Today
High -- | Low -- °F
--% Chance of Precip.
Yesterday
High -- | Low -- °F
Precip. -- in
5:54 AM 9:17 PM
Full, 100% visible
Pressure 30.26 in
Visibility 10.0 miles
Clouds Clear
Dew Point 45 °F
Humidity 73%
Rainfall 0.00 in
Snow Depth Not available.
UV 1 out of 12
Pollen 7.50 out of 12
Air Quality Not available.
Flu Activity Sporadic
METAR KGLR 021153Z AUTO 00000KT 10SM CLR 07/04 A3025 RMK AO2 SLP247 T00720039 10072 20006 53006

More Conditions Fewer Conditions

Pressure 30.26 in
Visibility 10.0 miles
Clouds Clear
Dew Point 45 °F
Humidity 73%
Rainfall 0.00 in
Snow Depth Not available.
UV 1 out of 12
Pollen 7.50 out of 12
Air Quality Not available.
Flu Activity Sporadic
METAR KGLR 021153Z AUTO 00000KT 10SM CLR 07/04 A3025 RMK AO2 SLP247 T00720039 10072 20006 53006

More Conditions Fewer Conditions

Nowcast | as of 8:00 am EDT on June 2, 2015

At 9 am...clear. Temperature 51. South winds 5 mph. At 11 am...mostly clear. Temperature 61. Southeast winds 6 mph. At 1 PM...mostly clear. Temperature 66. Southeast winds 6 mph. At 3 PM...mostly clear. Temperature 69. South winds 6 mph.

×

10-Day Weather Forecast

Almanac

Astronomy

Jun. 02, 2015 Rise Set
Actual Time
Civil Twilight
Nautical Twilight
Astronomical Twilight
Moon
Length of Visible Light
Length of Day
Tomorrow will be .
, % of the Moon is Illuminated

Today's Extremes

State Highs State Lows

Community

WunderPhotos

Upload Photos

1,825,892 photos uploaded!

WunderBlogs® & News

Nearby

Air Quality

  Air Quality AQ Index Pollutant
Not available.

Snow Depth

Station Depth Elevation

Earthquake Activity

City Distance Mag. Time & Date
Minimum magnitude displayed is 2.5.

Coastal Water Temperatures

Place Temperature

Stations

Nearby Weather Stations

Station Location Temp. Windchill Dew Point Humidity Wind Precip. Elev Updated Type